createdAt,value
2019-05-15T00:00:51.868Z,8.70
2019-05-15T00:03:21.717Z,8.60
2019-05-15T00:05:51.425Z,8.60
2019-05-15T00:08:21.253Z,8.70
2019-05-15T00:10:50.960Z,8.70
2019-05-15T00:13:20.673Z,8.70
2019-05-15T00:15:50.409Z,8.80
2019-05-15T00:18:20.103Z,8.80
2019-05-15T00:20:49.932Z,8.80
2019-05-15T00:23:20.607Z,8.80
2019-05-15T00:25:50.346Z,8.70
2019-05-15T00:28:20.089Z,8.80
2019-05-15T00:30:49.776Z,8.70
2019-05-15T00:33:19.530Z,8.70
2019-05-15T00:35:49.227Z,8.80
2019-05-15T00:38:18.929Z,8.80
2019-05-15T00:40:49.510Z,8.80
2019-05-15T00:43:19.496Z,8.80
2019-05-15T00:45:49.187Z,8.80
2019-05-15T00:48:18.920Z,8.80
2019-05-15T00:50:48.735Z,8.80
2019-05-15T00:53:19.597Z,8.90
2019-05-15T00:55:49.511Z,8.80
2019-05-15T00:58:20.181Z,8.80
2019-05-15T01:00:51.045Z,8.80
2019-05-15T01:03:20.755Z,8.80
2019-05-15T01:05:50.476Z,8.80
2019-05-15T01:08:20.212Z,8.80
2019-05-15T01:10:49.915Z,8.80
2019-05-15T01:13:19.667Z,8.80
2019-05-15T01:15:49.376Z,8.80
2019-05-15T01:18:19.118Z,8.80
2019-05-15T01:20:49.402Z,8.80
2019-05-15T01:23:19.517Z,8.90
2019-05-15T01:25:49.242Z,8.90
2019-05-15T01:28:19.083Z,8.90
2019-05-15T01:30:48.860Z,9.00
2019-05-15T01:33:19.086Z,8.90
2019-05-15T01:35:49.030Z,9.00
2019-05-15T01:38:18.962Z,9.00
2019-05-15T01:40:48.970Z,9.00
2019-05-15T01:43:18.978Z,9.10
2019-05-15T01:45:49.009Z,9.00
2019-05-15T01:48:19.121Z,9.10
2019-05-15T01:50:49.444Z,9.10
2019-05-15T01:53:19.362Z,9.00
2019-05-15T01:55:49.042Z,9.00
2019-05-15T01:58:19.045Z,9.00
2019-05-15T02:00:49.161Z,9.00
2019-05-15T02:03:18.852Z,9.00
2019-05-15T02:05:48.822Z,9.00
2019-05-15T02:08:19.091Z,9.00
2019-05-15T02:10:49.569Z,9.00
2019-05-15T02:13:19.752Z,9.00
2019-05-15T02:15:49.473Z,8.90
2019-05-15T02:18:19.410Z,8.90
2019-05-15T02:20:49.522Z,8.90
2019-05-15T02:23:19.581Z,8.90
2019-05-15T02:25:49.296Z,8.90
2019-05-15T02:28:19.041Z,8.80
2019-05-15T02:30:50.516Z,8.90
2019-05-15T02:33:20.238Z,8.90
2019-05-15T02:35:50.474Z,8.90
2019-05-15T02:38:20.492Z,8.90
2019-05-15T02:40:50.297Z,8.90
2019-05-15T02:43:19.973Z,8.90
2019-05-15T02:45:50.913Z,8.90
2019-05-15T02:48:21.110Z,8.90
2019-05-15T02:50:50.828Z,8.90
2019-05-15T02:53:23.058Z,9.00
2019-05-15T02:55:52.737Z,8.90
2019-05-15T02:58:22.470Z,8.90
2019-05-15T03:00:53.363Z,8.80
2019-05-15T03:03:23.580Z,8.80
2019-05-15T03:05:53.371Z,8.80
2019-05-15T03:08:23.209Z,8.80
2019-05-15T03:10:53.514Z,8.80
2019-05-15T03:13:23.304Z,8.80
2019-05-15T03:15:53.028Z,8.80
2019-05-15T03:18:22.733Z,8.90
2019-05-15T03:20:52.565Z,8.90
2019-05-15T03:23:22.245Z,8.90
2019-05-15T03:25:51.956Z,8.90
2019-05-15T03:28:21.674Z,8.90
2019-05-15T03:31:15.476Z,8.90
2019-05-15T03:33:27.785Z,8.90
2019-05-15T03:35:55.179Z,8.90
2019-05-15T03:38:29.196Z,8.90
2019-05-15T03:40:59.440Z,9.00
2019-05-15T03:43:29.217Z,9.00
2019-05-15T03:46:01.616Z,9.00
2019-05-15T03:48:30.704Z,9.00
2019-05-15T03:51:00.394Z,9.00
2019-05-15T03:53:30.253Z,9.00
2019-05-15T03:55:59.988Z,9.00
2019-05-15T03:58:30.642Z,9.00
2019-05-15T04:01:00.547Z,9.00
2019-05-15T04:03:30.564Z,9.00
2019-05-15T04:06:00.711Z,9.00
2019-05-15T04:08:30.890Z,9.00
2019-05-15T04:11:00.606Z,9.00
2019-05-15T04:13:30.378Z,9.00
2019-05-15T04:16:00.111Z,9.00
2019-05-15T04:18:29.845Z,9.00
2019-05-15T04:21:00.313Z,9.00
2019-05-15T04:23:31.575Z,9.10
2019-05-15T04:26:01.831Z,9.10
2019-05-15T04:28:33.978Z,9.20
2019-05-15T04:31:03.694Z,9.20
2019-05-15T04:33:33.467Z,9.20
2019-05-15T04:36:03.182Z,9.20
2019-05-15T04:38:32.902Z,9.20
2019-05-15T04:41:02.661Z,9.20
2019-05-15T04:43:39.286Z,9.20
2019-05-15T04:46:03.711Z,9.20
2019-05-15T04:48:33.531Z,9.20
2019-05-15T04:51:03.404Z,9.30
2019-05-15T04:53:33.579Z,9.30
2019-05-15T04:56:03.578Z,9.30
2019-05-15T04:58:33.284Z,9.30
2019-05-15T05:01:03.053Z,9.20
2019-05-15T05:03:34.506Z,9.30
2019-05-15T05:06:04.558Z,9.30
2019-05-15T05:08:34.762Z,9.30
2019-05-15T05:11:04.519Z,9.30
2019-05-15T05:13:40.206Z,9.30
2019-05-15T05:16:10.039Z,9.30
2019-05-15T05:18:41.739Z,9.30
2019-05-15T05:21:11.995Z,9.30
2019-05-15T05:23:42.754Z,9.40
2019-05-15T05:26:12.869Z,9.40
2019-05-15T05:28:42.619Z,9.40
2019-05-15T05:31:14.179Z,9.40
2019-05-15T05:33:45.288Z,9.40
2019-05-15T05:36:15.171Z,9.40
2019-05-15T05:38:44.923Z,9.40
2019-05-15T05:41:15.243Z,9.40
2019-05-15T05:43:48.759Z,9.30
2019-05-15T05:46:18.679Z,9.40
2019-05-15T05:48:49.081Z,9.40
2019-05-15T05:51:19.297Z,9.40
2019-05-15T05:53:49.082Z,9.50
2019-05-15T05:56:18.770Z,9.50
2019-05-15T05:58:49.973Z,9.50
2019-05-15T06:01:19.748Z,9.40
2019-05-15T06:03:49.500Z,9.50
2019-05-15T06:06:19.364Z,9.50
2019-05-15T06:08:49.144Z,9.50
2019-05-15T06:11:27.753Z,9.50
2019-05-15T06:13:58.410Z,9.40
2019-05-15T06:16:28.512Z,9.50
2019-05-15T06:18:58.736Z,9.60
2019-05-15T06:21:34.060Z,9.60
2019-05-15T06:24:05.533Z,9.60
2019-05-15T06:26:35.185Z,9.70
2019-05-15T06:29:04.878Z,9.80
2019-05-15T06:31:34.806Z,9.90
2019-05-15T06:34:04.542Z,10.00
2019-05-15T06:36:34.285Z,10.00
2019-05-15T06:39:05.211Z,10.10
2019-05-15T06:41:34.956Z,10.20
2019-05-15T06:44:07.953Z,10.20
2019-05-15T06:46:39.328Z,10.20
2019-05-15T06:49:09.537Z,10.20
2019-05-15T06:51:39.228Z,10.30
2019-05-15T06:54:09.017Z,10.20
2019-05-15T06:56:39.049Z,10.20
2019-05-15T06:59:11.100Z,10.20
2019-05-15T07:01:40.870Z,10.30
2019-05-15T07:04:10.593Z,10.50
2019-05-15T07:06:40.392Z,10.50
2019-05-15T07:09:10.133Z,10.50
2019-05-15T07:11:39.848Z,10.60
2019-05-15T07:14:09.583Z,10.80
2019-05-15T07:16:39.315Z,11.00
2019-05-15T07:19:09.034Z,11.10
2019-05-15T07:21:39.073Z,11.20
2019-05-15T07:24:09.426Z,11.20
2019-05-15T07:26:39.379Z,11.30
2019-05-15T07:29:09.218Z,11.30
2019-05-15T07:31:38.895Z,11.30
2019-05-15T07:34:08.609Z,11.40
2019-05-15T07:36:39.051Z,11.40
2019-05-15T07:39:09.394Z,11.40
2019-05-15T07:41:39.326Z,11.40
2019-05-15T07:44:09.400Z,11.40
2019-05-15T07:46:39.120Z,11.30
2019-05-15T07:49:09.199Z,11.30
2019-05-15T07:51:39.257Z,11.30
2019-05-15T07:54:09.339Z,11.20
2019-05-15T07:56:40.150Z,11.10
2019-05-15T07:59:09.865Z,11.10
2019-05-15T08:01:39.575Z,11.10
2019-05-15T08:04:24.686Z,11.10
2019-05-15T08:06:40.754Z,11.10
2019-05-15T08:09:10.506Z,11.20
2019-05-15T08:11:40.233Z,11.20
2019-05-15T08:14:09.933Z,11.20
2019-05-15T08:16:39.841Z,11.10
2019-05-15T08:19:09.934Z,11.30
2019-05-15T08:21:39.635Z,11.40
2019-05-15T08:24:09.514Z,11.50
2019-05-15T08:26:44.831Z,11.40
2019-05-15T08:29:10.564Z,11.50
2019-05-15T08:31:40.423Z,11.50
2019-05-15T08:34:16.014Z,11.60
2019-05-15T08:36:41.522Z,11.70
2019-05-15T08:39:11.213Z,11.80
2019-05-15T08:41:40.938Z,11.80
2019-05-15T08:44:10.825Z,11.80
2019-05-15T08:46:44.258Z,11.70
2019-05-15T08:49:12.573Z,11.60
2019-05-15T08:51:42.311Z,11.60
2019-05-15T08:54:12.016Z,11.60
2019-05-15T08:56:41.727Z,11.70
2019-05-15T08:59:11.455Z,11.80
2019-05-15T09:01:41.184Z,11.90
2019-05-15T09:04:26.222Z,11.90
2019-05-15T09:06:42.265Z,11.90
2019-05-15T09:09:11.996Z,11.80
2019-05-15T09:11:41.701Z,11.80
2019-05-15T09:14:11.408Z,11.80
2019-05-15T09:16:41.172Z,11.90
2019-05-15T09:19:10.969Z,12.00
2019-05-15T09:21:40.780Z,12.20
2019-05-15T09:24:10.499Z,12.30
2019-05-15T09:26:40.645Z,12.30
2019-05-15T09:29:10.440Z,12.20
2019-05-15T09:31:40.155Z,12.30
2019-05-15T09:34:09.915Z,12.40
2019-05-15T09:36:44.439Z,12.30
2019-05-15T09:39:13.327Z,12.20
2019-05-15T09:41:42.475Z,12.20
2019-05-15T09:44:12.155Z,12.30
2019-05-15T09:46:41.932Z,12.40
2019-05-15T09:49:11.688Z,12.40
2019-05-15T09:51:41.409Z,12.30
2019-05-15T09:54:11.121Z,12.30
2019-05-15T09:56:40.849Z,12.20
2019-05-15T09:59:10.536Z,12.20
2019-05-15T10:01:40.293Z,12.30
2019-05-15T10:04:10.020Z,12.30
2019-05-15T10:06:39.708Z,12.20
2019-05-15T10:09:09.454Z,12.20
2019-05-15T10:11:39.153Z,12.10
2019-05-15T10:14:09.768Z,12.10
2019-05-15T10:16:39.863Z,12.20
2019-05-15T10:19:09.593Z,12.20
2019-05-15T10:21:39.945Z,12.20
2019-05-15T10:24:10.413Z,12.30
2019-05-15T10:26:40.099Z,12.20
2019-05-15T10:29:09.852Z,12.10
2019-05-15T10:31:39.561Z,12.10
2019-05-15T10:34:09.384Z,12.10
2019-05-15T10:36:39.148Z,12.30
2019-05-15T10:39:09.134Z,12.20
2019-05-15T10:41:38.990Z,12.00
2019-05-15T10:44:09.282Z,11.80
2019-05-15T10:46:39.542Z,11.70
2019-05-15T10:49:09.279Z,11.60
2019-05-15T10:51:39.765Z,11.60
2019-05-15T10:54:09.768Z,11.50
2019-05-15T10:56:39.527Z,11.50
2019-05-15T10:59:09.380Z,11.40
2019-05-15T11:01:39.135Z,11.30
2019-05-15T11:04:09.427Z,11.30
2019-05-15T11:06:39.679Z,11.20
2019-05-15T11:09:09.394Z,11.20
2019-05-15T11:11:39.206Z,11.20
2019-05-15T11:14:09.347Z,11.20
2019-05-15T11:16:39.375Z,11.30
2019-05-15T11:19:35.758Z,11.40
2019-05-15T11:21:59.589Z,11.40
2019-05-15T11:24:32.248Z,11.40
2019-05-15T11:27:00.936Z,11.50
2019-05-15T11:29:30.944Z,11.50
2019-05-15T11:32:00.660Z,11.50
2019-05-15T11:34:30.363Z,11.50
2019-05-15T11:37:00.149Z,11.50
2019-05-15T11:39:29.847Z,11.60
2019-05-15T11:41:59.542Z,11.60
2019-05-15T11:44:29.265Z,11.50
2019-05-15T11:46:58.988Z,11.50
2019-05-15T11:49:29.233Z,11.60
2019-05-15T11:52:00.493Z,11.60
2019-05-15T11:54:30.455Z,11.70
2019-05-15T11:57:00.232Z,11.60
2019-05-15T11:59:30.274Z,11.70
2019-05-15T12:02:00.634Z,11.70
2019-05-15T12:04:33.851Z,11.60
2019-05-15T12:07:02.749Z,11.60
2019-05-15T12:09:32.652Z,11.60
2019-05-15T12:12:02.405Z,11.60
2019-05-15T12:14:32.201Z,11.50
2019-05-15T12:17:10.444Z,11.60
2019-05-15T12:19:34.192Z,11.70
2019-05-15T12:22:03.931Z,11.70
2019-05-15T12:24:36.861Z,11.80
2019-05-15T12:27:15.368Z,11.70
2019-05-15T12:29:39.501Z,11.60
2019-05-15T12:32:25.381Z,11.60
2019-05-15T12:34:39.207Z,11.60
2019-05-15T12:37:10.653Z,11.60
2019-05-15T12:39:41.035Z,11.50
2019-05-15T12:59:52.639Z,11.60
2019-05-15T13:02:22.401Z,11.60
2019-05-15T13:04:52.375Z,11.60
2019-05-15T13:07:22.129Z,11.60
2019-05-15T13:09:51.888Z,11.70
2019-05-15T13:12:21.653Z,11.70
2019-05-15T13:14:51.352Z,11.90
2019-05-15T13:17:21.094Z,12.00
2019-05-15T13:19:50.840Z,12.00
2019-05-15T13:22:24.590Z,12.10
2019-05-15T13:24:51.987Z,12.10
2019-05-15T13:27:21.826Z,12.10
2019-05-15T13:29:51.765Z,12.00
2019-05-15T13:32:21.492Z,12.00
2019-05-15T13:34:51.281Z,11.90
2019-05-15T13:37:27.128Z,11.80
2019-05-15T13:39:52.498Z,11.60
2019-05-15T13:42:22.213Z,11.60
2019-05-15T13:44:51.921Z,11.50
2019-05-15T13:47:21.596Z,11.50
2019-05-15T13:49:51.301Z,11.50
2019-05-15T13:52:21.695Z,11.50
2019-05-15T13:54:51.442Z,11.50
2019-05-15T13:57:21.094Z,11.60
2019-05-15T13:59:50.768Z,11.70
2019-05-15T14:02:20.507Z,11.80
2019-05-15T14:04:50.360Z,11.90
2019-05-15T14:07:20.199Z,11.80
2019-05-15T14:09:49.964Z,11.90
2019-05-15T14:12:19.705Z,11.90
2019-05-15T14:14:51.853Z,11.90
2019-05-15T14:17:21.604Z,11.90
2019-05-15T14:19:51.547Z,11.80
2019-05-15T14:22:21.312Z,11.70
2019-05-15T14:24:51.051Z,11.70
2019-05-15T14:27:21.410Z,11.80
2019-05-15T14:29:51.162Z,11.80
2019-05-15T14:32:34.560Z,11.80
2019-05-15T14:34:53.441Z,11.90
2019-05-15T14:37:23.183Z,11.90
2019-05-15T14:39:53.063Z,11.80
2019-05-15T14:42:22.766Z,11.90
2019-05-15T14:44:55.447Z,11.80
2019-05-15T14:47:26.443Z,11.90
2019-05-15T14:49:58.382Z,11.90
2019-05-15T14:52:28.151Z,11.80
2019-05-15T14:54:59.073Z,11.80
2019-05-15T14:57:29.120Z,11.90
2019-05-15T14:59:58.839Z,11.80
2019-05-15T15:02:28.512Z,11.80
2019-05-15T15:04:59.491Z,11.80
2019-05-15T15:07:29.400Z,11.70
2019-05-15T15:09:59.126Z,11.70
2019-05-15T15:12:28.834Z,11.70
2019-05-15T15:14:58.579Z,11.70
2019-05-15T15:17:28.895Z,11.60
2019-05-15T15:20:00.192Z,11.60
2019-05-15T15:22:30.269Z,11.60
2019-05-15T15:25:00.649Z,11.60
2019-05-15T15:27:30.341Z,11.60
2019-05-15T15:30:00.072Z,11.60
2019-05-15T15:32:29.764Z,11.60
2019-05-15T15:34:59.493Z,11.70
2019-05-15T15:37:29.312Z,11.70
2019-05-15T15:39:59.076Z,11.80
2019-05-15T15:42:28.784Z,11.80
2019-05-15T15:44:58.520Z,11.80
2019-05-15T15:47:28.373Z,11.80
2019-05-15T15:49:58.473Z,11.80
2019-05-15T15:52:29.080Z,11.90
2019-05-15T15:54:58.928Z,11.90
2019-05-15T15:57:28.712Z,11.80
2019-05-15T15:59:58.538Z,11.90
2019-05-15T16:02:28.311Z,11.90
2019-05-15T16:04:58.928Z,11.90
2019-05-15T16:07:28.827Z,12.00
2019-05-15T16:09:58.886Z,12.00
2019-05-15T16:12:29.162Z,12.00
2019-05-15T16:14:58.936Z,12.00
2019-05-15T16:17:28.743Z,12.10
2019-05-15T16:19:58.610Z,12.10
2019-05-15T16:22:28.820Z,12.10
2019-05-15T16:25:02.173Z,12.10
2019-05-15T16:27:30.022Z,12.10
2019-05-15T16:29:59.717Z,12.10
2019-05-15T16:32:29.456Z,12.20
2019-05-15T16:34:59.142Z,12.20
2019-05-15T16:37:29.444Z,12.20
2019-05-15T16:40:00.057Z,12.20
2019-05-15T16:42:30.016Z,12.30
2019-05-15T16:44:59.783Z,12.30
2019-05-15T16:47:29.495Z,12.30
2019-05-15T16:49:59.165Z,12.40
2019-05-15T16:52:30.887Z,12.40
2019-05-15T16:55:00.536Z,12.50
2019-05-15T16:57:30.337Z,12.50
2019-05-15T17:00:00.091Z,12.60
2019-05-15T17:02:32.114Z,12.70
2019-05-15T17:05:01.235Z,12.70
2019-05-15T17:07:31.094Z,12.70
2019-05-15T17:10:00.872Z,12.80
2019-05-15T17:12:30.589Z,12.80
2019-05-15T17:15:00.349Z,12.80
2019-05-15T17:17:30.071Z,12.80
2019-05-15T17:20:01.939Z,12.90
2019-05-15T17:22:31.179Z,12.90
2019-05-15T17:25:00.912Z,12.90
2019-05-15T17:27:30.637Z,12.90
2019-05-15T17:30:00.336Z,12.90
2019-05-15T17:32:30.056Z,13.00
2019-05-15T17:34:59.770Z,13.00
2019-05-15T17:37:30.153Z,13.00
2019-05-15T17:39:59.972Z,13.10
2019-05-15T17:42:29.719Z,13.10
2019-05-15T17:44:59.563Z,13.10
2019-05-15T17:47:29.236Z,13.10
2019-05-15T17:49:58.975Z,13.10
2019-05-15T17:52:29.382Z,13.10
2019-05-15T17:54:59.451Z,13.20
2019-05-15T17:57:29.400Z,13.20
2019-05-15T17:59:59.188Z,13.20
2019-05-15T18:02:29.017Z,13.20
2019-05-15T18:04:58.840Z,13.20
2019-05-15T18:07:31.112Z,13.20
2019-05-15T18:10:02.485Z,13.20
2019-05-15T18:12:34.220Z,13.20
2019-05-15T18:15:04.514Z,13.20
2019-05-15T18:17:34.278Z,13.20
2019-05-15T18:20:04.229Z,13.20
2019-05-15T18:22:34.152Z,13.20
2019-05-15T18:25:04.275Z,13.20
2019-05-15T18:27:34.045Z,13.30
2019-05-15T18:30:03.834Z,13.20
2019-05-15T18:32:33.659Z,13.30
2019-05-15T18:35:03.348Z,13.30
2019-05-15T18:37:33.647Z,13.30
2019-05-15T18:40:06.262Z,13.30
2019-05-15T18:42:35.224Z,13.30
2019-05-15T18:45:07.487Z,13.30
2019-05-15T18:47:39.271Z,13.30
2019-05-15T18:50:13.062Z,13.30
2019-05-15T18:52:41.541Z,13.20
2019-05-15T18:55:11.968Z,13.30
2019-05-15T18:57:41.688Z,13.20
2019-05-15T19:00:12.112Z,13.20
2019-05-15T19:02:41.880Z,13.20
2019-05-15T19:05:12.014Z,13.20
2019-05-15T19:07:41.759Z,13.20
2019-05-15T19:10:13.556Z,13.20
2019-05-15T19:12:43.325Z,13.20
2019-05-15T19:15:13.692Z,13.10
2019-05-15T19:17:43.469Z,13.10
2019-05-15T19:20:13.593Z,13.10
2019-05-15T19:22:43.398Z,13.20
2019-05-15T19:25:13.592Z,13.20
2019-05-15T19:27:43.389Z,13.20
2019-05-15T19:30:14.520Z,13.20
2019-05-15T19:32:44.241Z,13.20
2019-05-15T19:35:14.160Z,13.20
2019-05-15T19:37:43.958Z,13.30
2019-05-15T19:40:14.224Z,13.30
2019-05-15T19:42:44.005Z,13.30
2019-05-15T19:45:14.663Z,13.30
2019-05-15T19:47:44.409Z,13.30
2019-05-15T19:50:14.501Z,13.30
2019-05-15T19:52:44.387Z,13.30
2019-05-15T19:55:14.236Z,13.30
2019-05-15T19:57:44.049Z,13.30
2019-05-15T20:00:14.009Z,13.30
2019-05-15T20:02:43.870Z,13.30
2019-05-15T20:05:14.034Z,13.30
2019-05-15T20:07:44.135Z,13.30
2019-05-15T20:10:15.168Z,13.20
2019-05-15T20:12:47.618Z,13.20
2019-05-15T20:15:19.108Z,13.30
2019-05-15T20:17:48.550Z,13.20
2019-05-15T20:20:18.781Z,13.20
2019-05-15T20:22:49.266Z,13.30
2019-05-15T20:25:22.158Z,13.30
2019-05-15T20:27:51.900Z,13.30
2019-05-15T20:30:22.036Z,13.30
2019-05-15T20:32:53.212Z,13.30
2019-05-15T20:35:23.599Z,13.30
2019-05-15T20:37:53.732Z,13.30
2019-05-15T20:40:23.417Z,13.30
2019-05-15T20:42:53.148Z,13.30
2019-05-15T20:45:22.919Z,13.40
2019-05-15T20:47:52.729Z,13.40
2019-05-15T20:50:22.465Z,13.40
2019-05-15T20:52:52.248Z,13.50
2019-05-15T20:55:21.928Z,13.50
2019-05-15T20:57:51.682Z,13.40
2019-05-15T21:00:22.101Z,13.40
2019-05-15T21:02:51.847Z,13.40
2019-05-15T21:05:21.520Z,13.50
2019-05-15T21:07:51.261Z,13.50
2019-05-15T21:10:21.866Z,13.50
2019-05-15T21:12:52.039Z,13.60
2019-05-15T21:15:21.735Z,13.60
2019-05-15T21:17:58.467Z,13.50
2019-05-15T21:20:23.104Z,13.50
2019-05-15T21:22:52.898Z,13.50
2019-05-15T21:25:23.085Z,13.50
2019-05-15T21:27:52.872Z,13.50
2019-05-15T21:30:22.720Z,13.50
2019-05-15T21:32:52.522Z,13.50
2019-05-15T21:35:22.299Z,13.50
2019-05-15T21:37:52.079Z,13.50
2019-05-15T21:40:21.831Z,13.50
2019-05-15T21:42:51.874Z,13.50
2019-05-15T21:45:21.776Z,13.50
2019-05-15T21:47:51.603Z,13.50
2019-05-15T21:50:21.389Z,13.50
2019-05-15T21:52:51.184Z,13.50
2019-05-15T21:55:20.886Z,13.50
2019-05-15T21:57:51.164Z,13.50
2019-05-15T22:00:29.229Z,13.50
2019-05-15T22:02:59.396Z,13.50
2019-05-15T22:05:30.928Z,13.50
2019-05-15T22:08:00.687Z,13.50
2019-05-15T22:10:30.642Z,13.50
2019-05-15T22:13:01.290Z,13.50
2019-05-15T22:15:31.149Z,13.50
2019-05-15T22:18:01.067Z,13.50
2019-05-15T22:20:31.004Z,13.50
2019-05-15T22:23:00.716Z,13.50
2019-05-15T22:25:30.593Z,13.60
2019-05-15T22:28:00.801Z,13.60
2019-05-15T22:30:30.609Z,13.60
2019-05-15T22:33:00.340Z,13.60
2019-05-15T22:35:30.148Z,13.60
2019-05-15T22:37:59.949Z,13.60
2019-05-15T22:40:29.624Z,13.60
2019-05-15T22:42:59.916Z,13.60
2019-05-15T22:45:29.950Z,13.60
2019-05-15T22:47:59.653Z,13.60
2019-05-15T22:50:29.413Z,13.60
2019-05-15T22:52:59.153Z,13.70
2019-05-15T22:55:29.253Z,13.60
2019-05-15T22:57:59.835Z,13.60
2019-05-15T23:00:30.142Z,13.70
2019-05-15T23:02:59.961Z,13.70
2019-05-15T23:05:31.907Z,13.60
2019-05-15T23:08:01.064Z,13.70
2019-05-15T23:10:30.838Z,13.70
2019-05-15T23:13:00.545Z,13.70
2019-05-15T23:15:30.672Z,13.70
2019-05-15T23:18:00.449Z,13.70
2019-05-15T23:20:30.186Z,13.70
2019-05-15T23:22:59.975Z,13.70
2019-05-15T23:25:29.724Z,13.70
2019-05-15T23:27:59.530Z,13.70
2019-05-15T23:30:29.205Z,13.70
2019-05-15T23:32:59.064Z,13.70
2019-05-15T23:35:37.503Z,13.70
2019-05-15T23:38:00.233Z,13.80
2019-05-15T23:40:30.048Z,13.80
2019-05-15T23:42:59.816Z,13.80
2019-05-15T23:45:29.614Z,13.70
2019-05-15T23:47:59.357Z,13.70
2019-05-15T23:50:29.075Z,13.70
2019-05-15T23:52:58.808Z,13.80
2019-05-15T23:55:28.740Z,13.80
2019-05-15T23:57:58.660Z,13.70
